createdAt,value
2019-03-23T00:01:50.485Z,68.65
2019-03-23T00:04:25.317Z,68.85
2019-03-23T00:06:57.529Z,69.04
2019-03-23T00:09:34.262Z,69.14
2019-03-23T00:12:06.784Z,69.36
2019-03-23T00:14:39.298Z,69.20
2019-03-23T00:17:11.922Z,68.67
2019-03-23T00:19:44.420Z,68.39
2019-03-23T00:22:16.950Z,68.30
2019-03-23T00:24:49.560Z,68.39
2019-03-23T00:27:22.088Z,68.60
2019-03-23T00:29:54.707Z,69.01
2019-03-23T00:32:27.360Z,68.91
2019-03-23T00:34:59.934Z,68.87
2019-03-23T00:37:32.455Z,68.91
2019-03-23T00:40:05.820Z,68.56
2019-03-23T00:42:38.374Z,68.76
2019-03-23T00:45:10.896Z,69.24
2019-03-23T00:47:43.405Z,69.31
2019-03-23T00:50:15.994Z,69.61
2019-03-23T00:52:48.526Z,69.39
2019-03-23T00:55:21.051Z,69.75
2019-03-23T00:57:53.563Z,70.14
2019-03-23T01:00:26.023Z,70.33
2019-03-23T01:02:58.551Z,70.49
2019-03-23T01:05:31.046Z,70.60
2019-03-23T01:08:03.563Z,70.66
2019-03-23T01:10:36.035Z,70.95
2019-03-23T01:13:08.537Z,71.16
2019-03-23T01:15:41.038Z,71.11
2019-03-23T01:18:13.567Z,71.51
2019-03-23T01:20:49.896Z,71.67
2019-03-23T01:23:20.506Z,71.04
2019-03-23T01:25:53.009Z,70.42
2019-03-23T01:28:25.509Z,70.69
2019-03-23T01:30:58.056Z,71.00
2019-03-23T01:33:30.497Z,71.23
2019-03-23T01:36:03.012Z,70.82
2019-03-23T01:38:35.502Z,70.74
2019-03-23T01:41:08.020Z,70.43
2019-03-23T01:43:40.513Z,70.89
2019-03-23T01:46:13.025Z,70.82
2019-03-23T01:48:45.503Z,70.86
2019-03-23T01:51:18.019Z,70.19
2019-03-23T01:53:50.491Z,70.10
2019-03-23T01:56:22.979Z,70.39
2019-03-23T01:58:55.488Z,70.75
2019-03-23T02:01:28.010Z,70.64
2019-03-23T02:04:00.515Z,70.95
2019-03-23T02:06:33.005Z,71.49
2019-03-23T02:09:06.580Z,71.76
2019-03-23T02:11:39.093Z,72.03
2019-03-23T02:14:11.591Z,72.17
2019-03-23T02:16:44.110Z,71.96
2019-03-23T02:19:16.614Z,71.74
2019-03-23T02:21:49.110Z,71.71
2019-03-23T02:24:21.600Z,71.37
2019-03-23T02:26:54.175Z,71.51
2019-03-23T02:29:26.662Z,71.62
2019-03-23T02:31:59.154Z,71.84
2019-03-23T02:34:31.637Z,71.61
2019-03-23T02:37:04.130Z,71.54
2019-03-23T02:39:36.605Z,72.02
2019-03-23T02:42:09.202Z,72.10
2019-03-23T02:44:41.618Z,72.32
2019-03-23T02:47:14.157Z,72.52
2019-03-23T02:49:46.631Z,72.26
2019-03-23T02:52:19.180Z,72.46
2019-03-23T02:54:51.653Z,72.55
2019-03-23T02:57:24.152Z,72.41
2019-03-23T02:59:56.630Z,72.70
2019-03-23T03:02:29.142Z,72.92
2019-03-23T03:05:01.704Z,72.81
2019-03-23T03:07:42.003Z,72.65
2019-03-23T03:10:09.077Z,72.82
2019-03-23T03:12:41.578Z,72.83
2019-03-23T03:15:14.063Z,73.05
2019-03-23T03:17:46.564Z,73.61
2019-03-23T03:20:19.053Z,74.19
2019-03-23T03:22:51.555Z,73.96
2019-03-23T03:25:24.120Z,73.50
2019-03-23T03:27:56.624Z,73.57
2019-03-23T03:30:29.247Z,73.62
2019-03-23T03:33:01.782Z,73.22
2019-03-23T03:35:34.271Z,72.82
2019-03-23T03:38:06.789Z,72.54
2019-03-23T03:40:39.329Z,72.61
2019-03-23T03:43:11.825Z,72.53
2019-03-23T03:45:44.343Z,72.73
2019-03-23T03:48:16.806Z,72.84
2019-03-23T03:50:49.358Z,72.95
2019-03-23T03:53:21.828Z,73.04
2019-03-23T03:55:54.352Z,73.00
2019-03-23T03:58:26.857Z,73.09
2019-03-23T04:00:59.363Z,72.93
2019-03-23T04:03:31.839Z,72.74
2019-03-23T04:06:04.357Z,72.88
2019-03-23T04:08:36.851Z,72.91
2019-03-23T04:11:09.338Z,72.92
2019-03-23T04:13:41.846Z,72.85
2019-03-23T04:16:14.347Z,72.75
2019-03-23T04:18:46.869Z,72.94
2019-03-23T04:21:19.378Z,72.69
2019-03-23T04:23:51.860Z,72.93
2019-03-23T04:26:24.362Z,72.98
2019-03-23T04:28:56.849Z,73.11
2019-03-23T04:31:29.401Z,73.03
2019-03-23T04:34:01.886Z,73.52
2019-03-23T04:36:34.376Z,74.14
2019-03-23T04:39:06.896Z,74.24
2019-03-23T04:41:39.387Z,74.49
2019-03-23T04:44:11.900Z,74.32
2019-03-23T04:46:44.384Z,74.40
2019-03-23T04:49:16.874Z,74.19
2019-03-23T04:51:49.426Z,74.10
2019-03-23T04:54:21.847Z,73.96
2019-03-23T04:56:54.345Z,74.02
2019-03-23T04:59:26.829Z,74.63
2019-03-23T05:01:59.344Z,75.29
2019-03-23T05:04:31.866Z,75.27
2019-03-23T05:07:04.384Z,75.48
2019-03-23T05:09:36.871Z,75.55
2019-03-23T05:12:09.374Z,76.02
2019-03-23T05:14:41.858Z,76.17
2019-03-23T05:17:14.363Z,76.25
2019-03-23T05:19:46.838Z,76.26
2019-03-23T05:22:19.351Z,76.04
2019-03-23T05:24:51.878Z,75.65
2019-03-23T05:27:24.411Z,75.67
2019-03-23T05:29:56.895Z,75.38
2019-03-23T05:32:29.414Z,75.31
2019-03-23T05:35:01.902Z,75.52
2019-03-23T05:37:34.456Z,75.18
2019-03-23T05:40:06.961Z,74.69
2019-03-23T05:42:39.489Z,74.75
2019-03-23T05:45:11.969Z,74.94
2019-03-23T05:47:44.508Z,75.45
2019-03-23T05:50:16.998Z,75.05
2019-03-23T05:52:49.515Z,75.05
2019-03-23T05:55:22.054Z,74.73
2019-03-23T05:57:54.566Z,75.16
2019-03-23T06:00:27.054Z,75.23
2019-03-23T06:02:59.572Z,74.54
2019-03-23T06:05:32.059Z,74.07
2019-03-23T06:08:04.577Z,73.78
2019-03-23T06:10:37.071Z,73.51
2019-03-23T06:13:09.569Z,73.19
2019-03-23T06:15:42.069Z,72.95
2019-03-23T06:18:14.578Z,72.48
2019-03-23T06:20:47.056Z,72.09
2019-03-23T06:23:19.581Z,71.16
2019-03-23T06:25:52.086Z,69.96
2019-03-23T06:28:24.580Z,68.94
2019-03-23T06:30:57.069Z,67.28
2019-03-23T06:33:29.578Z,66.92
2019-03-23T06:36:02.097Z,65.51
2019-03-23T06:38:34.570Z,63.69
2019-03-23T06:41:07.067Z,62.68
2019-03-23T06:43:39.622Z,61.48
2019-03-23T06:46:12.122Z,60.06
2019-03-23T06:48:44.624Z,58.93
2019-03-23T06:51:17.147Z,56.84
2019-03-23T06:53:49.626Z,55.44
2019-03-23T06:56:22.119Z,54.62
2019-03-23T06:58:54.691Z,53.93
2019-03-23T07:01:27.233Z,54.02
2019-03-23T07:04:00.601Z,52.84
2019-03-23T07:06:33.199Z,52.15
2019-03-23T07:09:15.711Z,50.94
2019-03-23T07:11:40.868Z,50.96
2019-03-23T07:14:13.359Z,50.98
2019-03-23T07:16:45.915Z,50.09
2019-03-23T07:19:18.444Z,51.77
2019-03-23T07:21:50.971Z,52.44
2019-03-23T07:24:23.509Z,53.04
2019-03-23T07:26:56.026Z,53.31
2019-03-23T07:29:28.509Z,52.94
2019-03-23T07:32:05.673Z,53.46
2019-03-23T07:34:35.468Z,53.84
2019-03-23T07:37:08.007Z,53.86
2019-03-23T07:39:40.530Z,53.52
2019-03-23T07:42:13.088Z,53.18
2019-03-23T07:44:45.605Z,52.84
2019-03-23T07:47:18.133Z,52.37
2019-03-23T07:49:50.648Z,51.91
2019-03-23T07:52:23.234Z,51.19
2019-03-23T07:54:56.425Z,50.89
2019-03-23T07:57:28.981Z,51.13
2019-03-23T08:00:01.519Z,50.40
2019-03-23T08:02:34.056Z,50.37
2019-03-23T08:05:07.070Z,49.81
2019-03-23T08:07:39.752Z,49.42
2019-03-23T08:10:24.244Z,48.59
2019-03-23T08:12:56.770Z,48.65
2019-03-23T08:15:29.506Z,48.11
2019-03-23T08:18:02.003Z,48.01
2019-03-23T08:20:34.499Z,47.31
2019-03-23T08:23:07.043Z,46.71
2019-03-23T08:25:39.598Z,46.75
2019-03-23T08:28:12.111Z,46.78
2019-03-23T08:30:44.611Z,46.44
2019-03-23T08:33:18.264Z,46.33
2019-03-23T08:35:50.900Z,45.46
2019-03-23T08:38:23.434Z,45.05
2019-03-23T08:40:55.978Z,45.24
2019-03-23T08:43:28.518Z,44.22
2019-03-23T08:46:01.063Z,43.79
2019-03-23T08:48:33.563Z,42.86
2019-03-23T08:51:06.073Z,42.78
2019-03-23T08:53:38.613Z,42.36
2019-03-23T08:56:11.136Z,41.38
2019-03-23T08:58:42.102Z,40.90
2019-03-23T09:01:14.603Z,41.18
2019-03-23T09:03:52.306Z,40.31
2019-03-23T09:06:21.560Z,40.10
2019-03-23T09:08:54.080Z,39.43
2019-03-23T09:11:26.620Z,38.76
2019-03-23T09:13:59.121Z,38.54
2019-03-23T09:16:31.685Z,38.58
2019-03-23T09:19:04.180Z,38.45
2019-03-23T09:21:36.723Z,38.36
2019-03-23T09:24:09.243Z,37.86
2019-03-23T09:26:41.760Z,37.26
2019-03-23T09:29:14.256Z,37.44
2019-03-23T09:31:46.772Z,35.83
2019-03-23T09:34:19.266Z,36.31
2019-03-23T09:36:51.829Z,35.57
2019-03-23T09:39:24.342Z,35.46
2019-03-23T09:41:56.912Z,35.08
2019-03-23T09:44:29.465Z,34.68
2019-03-23T09:47:02.000Z,34.04
2019-03-23T09:49:34.488Z,34.23
2019-03-23T09:52:07.015Z,34.25
2019-03-23T09:54:39.571Z,33.88
2019-03-23T09:57:12.086Z,33.63
2019-03-23T09:59:44.604Z,33.34
2019-03-23T10:02:17.164Z,33.61
2019-03-23T10:04:49.693Z,33.45
2019-03-23T10:07:22.273Z,33.20
2019-03-23T10:09:54.785Z,33.21
2019-03-23T10:12:27.355Z,32.46
2019-03-23T10:14:59.898Z,32.32
2019-03-23T10:17:32.408Z,31.67
2019-03-23T10:20:05.047Z,31.93
2019-03-23T10:22:37.599Z,31.39
2019-03-23T10:25:10.134Z,30.83
2019-03-23T10:27:42.718Z,30.64
2019-03-23T10:30:15.287Z,31.20
2019-03-23T10:32:47.823Z,30.42
2019-03-23T10:35:20.356Z,30.81
2019-03-23T10:37:52.851Z,30.75
2019-03-23T10:40:32.485Z,30.72
2019-03-23T10:42:59.816Z,30.56
2019-03-23T10:45:32.371Z,30.17
2019-03-23T10:48:04.927Z,30.50
2019-03-23T10:50:37.474Z,31.02
2019-03-23T10:53:10.063Z,30.20
2019-03-23T10:55:42.682Z,30.16
2019-03-23T10:58:15.221Z,30.03
2019-03-23T11:00:47.802Z,30.17
2019-03-23T11:03:20.326Z,30.39
2019-03-23T11:05:52.861Z,30.61
2019-03-23T11:08:25.383Z,30.67
2019-03-23T11:10:57.968Z,30.16
2019-03-23T11:13:30.487Z,30.00
2019-03-23T11:16:03.061Z,30.54
2019-03-23T11:18:37.732Z,31.29
2019-03-23T11:21:10.012Z,31.20
2019-03-23T11:23:42.538Z,31.52
2019-03-23T11:26:15.169Z,30.28
2019-03-23T11:28:47.678Z,30.31
2019-03-23T11:31:20.233Z,31.04
2019-03-23T11:33:52.753Z,30.55
2019-03-23T11:36:25.277Z,30.53
2019-03-23T11:38:57.782Z,30.83
2019-03-23T11:41:30.330Z,31.72
2019-03-23T11:44:02.890Z,31.70
2019-03-23T11:46:35.402Z,31.41
2019-03-23T11:49:07.933Z,31.41
2019-03-23T11:51:40.484Z,30.56
2019-03-23T11:54:13.016Z,30.74
2019-03-23T11:56:45.578Z,30.88
2019-03-23T11:59:18.107Z,31.43
2019-03-23T12:01:52.042Z,30.64
2019-03-23T12:04:25.221Z,30.87
2019-03-23T12:06:57.912Z,30.81
2019-03-23T12:09:30.439Z,31.29
2019-03-23T12:12:02.995Z,31.22
2019-03-23T12:14:35.543Z,31.09
2019-03-23T12:17:08.111Z,30.69
2019-03-23T12:19:40.699Z,29.50
2019-03-23T12:22:13.211Z,29.92
2019-03-23T12:24:45.717Z,29.64
2019-03-23T12:27:18.272Z,30.84
2019-03-23T12:29:50.768Z,30.72
2019-03-23T12:32:23.341Z,30.82
2019-03-23T12:34:55.861Z,30.19
2019-03-23T12:37:28.375Z,29.61
2019-03-23T12:40:00.902Z,29.79
2019-03-23T12:42:33.461Z,29.99
2019-03-23T12:45:06.833Z,29.43
2019-03-23T12:47:39.381Z,29.56
2019-03-23T12:50:12.069Z,29.57
2019-03-23T12:52:44.616Z,29.65
2019-03-23T12:55:17.167Z,29.50
2019-03-23T12:57:49.674Z,29.24
2019-03-23T13:00:22.221Z,29.10
2019-03-23T13:02:54.747Z,29.38
2019-03-23T13:05:27.257Z,30.03
2019-03-23T13:07:59.826Z,30.75
2019-03-23T13:10:32.349Z,30.28
2019-03-23T13:13:04.847Z,29.45
2019-03-23T13:15:37.356Z,29.92
2019-03-23T13:18:09.990Z,29.75
2019-03-23T13:20:42.533Z,30.33
2019-03-23T13:23:15.086Z,30.14
2019-03-23T13:25:47.647Z,29.41
2019-03-23T13:28:20.165Z,29.70
2019-03-23T13:30:52.674Z,29.07
2019-03-23T13:33:25.238Z,29.08
2019-03-23T13:35:57.789Z,30.04
2019-03-23T13:38:30.331Z,29.98
2019-03-23T13:41:03.364Z,30.56
2019-03-23T13:43:35.920Z,30.28
2019-03-23T13:46:08.462Z,29.58
2019-03-23T13:48:40.991Z,29.92
2019-03-23T13:51:13.548Z,29.55
2019-03-23T13:53:46.078Z,29.47
2019-03-23T13:56:18.619Z,29.81
2019-03-23T13:58:51.089Z,29.98
2019-03-23T14:01:23.702Z,29.60
2019-03-23T14:03:56.228Z,29.74
2019-03-23T14:06:28.809Z,29.96
2019-03-23T14:09:01.333Z,30.49
2019-03-23T14:11:33.902Z,30.08
2019-03-23T14:14:06.450Z,30.35
2019-03-23T14:16:39.043Z,30.04
2019-03-23T14:19:11.571Z,29.65
2019-03-23T14:21:44.097Z,29.91
2019-03-23T14:24:16.616Z,30.24
2019-03-23T14:26:49.161Z,29.61
2019-03-23T14:29:21.660Z,32.47
2019-03-23T14:31:54.205Z,29.63
2019-03-23T14:34:26.728Z,28.87
2019-03-23T14:36:59.289Z,29.29
2019-03-23T14:39:31.827Z,29.95
2019-03-23T14:42:04.985Z,29.73
2019-03-23T14:44:37.921Z,31.04
2019-03-23T14:47:10.501Z,31.06
2019-03-23T14:49:43.052Z,30.04
2019-03-23T14:52:15.684Z,30.25
2019-03-23T14:54:48.314Z,30.78
2019-03-23T14:57:20.954Z,30.80
2019-03-23T14:59:53.489Z,30.69
2019-03-23T15:02:25.993Z,30.17
2019-03-23T15:04:58.602Z,30.21
2019-03-23T15:07:31.134Z,29.70
2019-03-23T15:10:05.039Z,29.80
2019-03-23T15:12:37.527Z,30.29
2019-03-23T15:15:10.134Z,30.76
2019-03-23T15:17:48.741Z,29.89
2019-03-23T15:20:17.201Z,30.10
2019-03-23T15:22:49.704Z,30.54
2019-03-23T15:25:22.258Z,31.09
2019-03-23T15:27:54.804Z,30.95
2019-03-23T15:30:27.360Z,30.67
2019-03-23T15:32:59.878Z,30.35
2019-03-23T15:35:32.410Z,30.51
2019-03-23T15:38:04.997Z,30.39
2019-03-23T15:40:37.584Z,30.76
2019-03-23T15:43:10.157Z,30.76
2019-03-23T15:45:42.690Z,31.38
2019-03-23T15:48:15.211Z,31.74
2019-03-23T15:50:47.790Z,31.89
2019-03-23T15:53:20.306Z,31.90
2019-03-23T15:55:52.910Z,32.33
2019-03-23T15:58:25.604Z,31.45
2019-03-23T16:00:58.478Z,31.00
2019-03-23T16:03:31.012Z,31.42
2019-03-23T16:06:03.671Z,31.52
2019-03-23T16:08:36.181Z,31.76
2019-03-23T16:11:08.757Z,31.97
2019-03-23T16:13:41.257Z,31.90
2019-03-23T16:16:13.822Z,31.79
2019-03-23T16:18:49.137Z,31.52
2019-03-23T16:21:21.685Z,31.26
2019-03-23T16:23:54.210Z,31.24
2019-03-23T16:26:26.790Z,31.25
2019-03-23T16:28:59.497Z,31.73
2019-03-23T16:31:32.081Z,32.25
2019-03-23T16:34:04.694Z,32.43
2019-03-23T16:36:37.337Z,32.94
2019-03-23T16:39:09.863Z,32.99
2019-03-23T16:41:42.421Z,33.04
2019-03-23T16:44:14.964Z,33.40
2019-03-23T16:46:47.553Z,33.68
2019-03-23T16:49:20.106Z,33.84
2019-03-23T16:51:52.743Z,33.73
2019-03-23T16:54:25.288Z,33.96
2019-03-23T16:56:57.833Z,33.99
2019-03-23T16:59:30.434Z,34.44
2019-03-23T17:02:02.965Z,34.18
2019-03-23T17:04:35.549Z,34.61
2019-03-23T17:07:08.066Z,34.48
2019-03-23T17:09:40.642Z,34.64
2019-03-23T17:12:13.212Z,34.67
2019-03-23T17:14:45.745Z,34.96
2019-03-23T17:17:18.306Z,35.25
2019-03-23T17:19:50.816Z,35.67
2019-03-23T17:22:23.353Z,35.80
2019-03-23T17:24:55.895Z,35.86
2019-03-23T17:27:28.466Z,36.75
2019-03-23T17:30:01.063Z,37.78
2019-03-23T17:32:33.586Z,38.08
2019-03-23T17:35:06.864Z,38.53
2019-03-23T17:37:39.378Z,39.08
2019-03-23T17:40:11.927Z,40.00
2019-03-23T17:42:44.424Z,41.11
2019-03-23T17:45:17.089Z,41.78
2019-03-23T17:47:49.735Z,42.25
2019-03-23T17:50:22.267Z,42.91
2019-03-23T17:52:54.783Z,43.68
2019-03-23T17:55:27.366Z,44.39
2019-03-23T17:57:59.898Z,44.70
2019-03-23T18:00:32.438Z,44.92
2019-03-23T18:03:05.026Z,45.27
2019-03-23T18:05:37.600Z,45.48
2019-03-23T18:08:10.125Z,45.93
2019-03-23T18:10:42.673Z,46.16
2019-03-23T18:13:16.852Z,46.27
2019-03-23T18:15:49.709Z,46.33
2019-03-23T18:18:22.325Z,47.01
2019-03-23T18:20:54.922Z,47.65
2019-03-23T18:23:27.429Z,48.10
2019-03-23T18:26:00.007Z,47.88
2019-03-23T18:28:32.620Z,48.08
2019-03-23T18:31:05.224Z,48.58
2019-03-23T18:33:37.753Z,49.00
2019-03-23T18:36:10.353Z,49.67
2019-03-23T18:38:42.977Z,50.16
2019-03-23T18:41:15.754Z,50.69
2019-03-23T18:43:48.802Z,51.10
2019-03-23T18:46:21.377Z,51.52
2019-03-23T18:48:53.923Z,52.02
2019-03-23T18:51:26.461Z,52.40
2019-03-23T18:53:59.221Z,52.93
2019-03-23T18:56:31.827Z,53.08
2019-03-23T18:59:04.417Z,53.29
2019-03-23T19:01:37.110Z,53.32
2019-03-23T19:04:09.867Z,53.66
2019-03-23T19:06:42.630Z,53.99
2019-03-23T19:09:15.318Z,54.18
2019-03-23T19:11:47.861Z,54.45
2019-03-23T19:14:20.415Z,54.89
2019-03-23T19:16:53.125Z,55.10
2019-03-23T19:19:25.855Z,55.48
2019-03-23T19:21:58.442Z,55.60
2019-03-23T19:24:32.779Z,55.79
2019-03-23T19:27:05.355Z,56.01
2019-03-23T19:29:37.978Z,56.34
2019-03-23T19:32:10.740Z,56.34
2019-03-23T19:34:43.502Z,55.56
2019-03-23T19:37:16.209Z,55.89
2019-03-23T19:39:48.886Z,56.54
2019-03-23T19:42:21.404Z,56.74
2019-03-23T19:44:54.133Z,56.57
2019-03-23T19:47:26.716Z,56.06
2019-03-23T19:49:59.314Z,56.60
2019-03-23T19:52:33.597Z,56.85
2019-03-23T19:55:06.740Z,57.25
2019-03-23T19:57:39.370Z,57.00
2019-03-23T20:00:11.991Z,57.30
2019-03-23T20:02:44.633Z,57.55
2019-03-23T20:05:17.283Z,58.09
2019-03-23T20:07:49.826Z,58.27
2019-03-23T20:10:22.493Z,58.48
2019-03-23T20:12:55.093Z,58.55
2019-03-23T20:15:27.653Z,58.65
2019-03-23T20:18:00.249Z,58.39
2019-03-23T20:20:32.827Z,58.52
2019-03-23T20:23:05.345Z,58.58
2019-03-23T20:25:39.710Z,58.73
2019-03-23T20:28:12.359Z,59.02
2019-03-23T20:30:46.615Z,59.12
2019-03-23T20:33:19.844Z,59.06
2019-03-23T20:35:52.666Z,59.07
2019-03-23T20:38:25.340Z,58.98
2019-03-23T20:40:57.917Z,59.07
2019-03-23T20:43:30.918Z,59.16
2019-03-23T20:46:03.631Z,59.21
2019-03-23T20:48:36.817Z,59.61
2019-03-23T20:51:09.722Z,59.77
2019-03-23T20:53:42.271Z,60.17
2019-03-23T20:56:14.824Z,60.20
2019-03-23T20:58:47.352Z,60.44
2019-03-23T21:01:20.024Z,60.54
2019-03-23T21:03:52.566Z,60.68
2019-03-23T21:06:25.168Z,60.56
2019-03-23T21:08:57.701Z,60.57
2019-03-23T21:11:30.288Z,60.86
2019-03-23T21:14:03.094Z,60.98
2019-03-23T21:16:35.679Z,61.37
2019-03-23T21:19:08.269Z,61.43
2019-03-23T21:21:40.925Z,61.25
2019-03-23T21:24:13.530Z,61.54
2019-03-23T21:26:47.897Z,62.00
2019-03-23T21:29:21.651Z,62.12
2019-03-23T21:31:54.222Z,62.31
2019-03-23T21:34:26.815Z,62.63
2019-03-23T21:37:00.470Z,62.78
2019-03-23T21:39:32.993Z,62.91
2019-03-23T21:42:05.648Z,63.17
2019-03-23T21:44:38.212Z,63.31
2019-03-23T21:47:10.797Z,63.50
2019-03-23T21:49:43.361Z,63.42
2019-03-23T21:52:15.998Z,63.36
2019-03-23T21:54:48.637Z,63.48
2019-03-23T21:57:21.191Z,63.34
2019-03-23T21:59:53.789Z,63.59
2019-03-23T22:02:27.485Z,63.74
2019-03-23T22:04:59.995Z,63.93
2019-03-23T22:07:32.550Z,64.23
2019-03-23T22:10:06.640Z,64.51
2019-03-23T22:12:39.302Z,64.50
2019-03-23T22:15:11.934Z,64.59
2019-03-23T22:17:44.569Z,64.83
2019-03-23T22:20:17.151Z,64.96
2019-03-23T22:22:49.942Z,65.41
2019-03-23T22:25:22.589Z,65.28
2019-03-23T22:27:55.519Z,65.55
2019-03-23T22:30:28.087Z,65.90
2019-03-23T22:33:00.953Z,66.14
2019-03-23T22:35:35.383Z,66.02
2019-03-23T22:38:08.003Z,66.15
2019-03-23T22:40:40.766Z,65.51
2019-03-23T22:43:13.453Z,65.62
2019-03-23T22:45:46.112Z,65.70
2019-03-23T22:48:18.635Z,65.70
2019-03-23T22:50:51.217Z,65.58
2019-03-23T22:53:23.744Z,65.66
2019-03-23T22:55:56.459Z,65.65
2019-03-23T22:58:29.074Z,65.80
2019-03-23T23:01:01.858Z,66.04
2019-03-23T23:03:34.383Z,66.30
2019-03-23T23:06:08.110Z,66.11
2019-03-23T23:08:40.721Z,66.48
2019-03-23T23:11:13.270Z,66.68
2019-03-23T23:13:45.794Z,66.67
2019-03-23T23:16:18.355Z,66.87
2019-03-23T23:18:50.889Z,67.09
2019-03-23T23:21:23.437Z,67.48
2019-03-23T23:23:55.937Z,67.64
2019-03-23T23:26:28.580Z,67.53
2019-03-23T23:29:01.227Z,67.70
2019-03-23T23:31:33.763Z,67.47
2019-03-23T23:34:06.375Z,67.66
2019-03-23T23:36:39.977Z,68.16
2019-03-23T23:39:12.471Z,68.35
2019-03-23T23:41:45.020Z,68.26
2019-03-23T23:44:17.537Z,67.83
2019-03-23T23:46:50.170Z,68.07
2019-03-23T23:49:22.781Z,68.17
2019-03-23T23:51:55.289Z,68.44
2019-03-23T23:54:29.007Z,68.43
2019-03-23T23:57:01.759Z,68.45
2019-03-23T23:59:34.261Z,68.51
